sensor_id;sensor_type;location;lat;lon;timestamp;pressure;altitude;pressure_sealevel;temperature;humidity
60897;BME280;46749;32.932;-117.130;2023-02-05T00:00:37;101159.47;;;18.53;52.86
60897;BME280;46749;32.932;-117.130;2023-02-05T00:03:03;101152.44;;;18.52;52.78
60897;BME280;46749;32.932;-117.130;2023-02-05T00:05:29;101144.56;;;18.52;52.79
60897;BME280;46749;32.932;-117.130;2023-02-05T00:07:55;101148.94;;;18.53;53.14
60897;BME280;46749;32.932;-117.130;2023-02-05T00:10:21;101180.50;;;18.52;52.97
60897;BME280;46749;32.932;-117.130;2023-02-05T00:12:48;101163.84;;;18.51;52.96
60897;BME280;46749;32.932;-117.130;2023-02-05T00:15:14;101162.09;;;18.50;53.23
60897;BME280;46749;32.932;-117.130;2023-02-05T00:17:40;101164.72;;;18.50;53.31
60897;BME280;46749;32.932;-117.130;2023-02-05T00:20:07;101147.16;;;18.49;53.13
60897;BME280;46749;32.932;-117.130;2023-02-05T00:22:33;101162.09;;;18.50;53.10
60897;BME280;46749;32.932;-117.130;2023-02-05T00:24:59;101155.94;;;18.50;53.08
60897;BME280;46749;32.932;-117.130;2023-02-05T00:27:26;101126.13;;;18.49;53.10
60897;BME280;46749;32.932;-117.130;2023-02-05T00:29:52;101148.94;;;18.49;53.21
60897;BME280;46749;32.932;-117.130;2023-02-05T00:32:18;101149.81;;;18.49;53.35
60897;BME280;46749;32.932;-117.130;2023-02-05T00:34:44;101142.78;;;18.50;53.26
60897;BME280;46749;32.932;-117.130;2023-02-05T00:37:10;101140.16;;;18.50;53.29
60897;BME280;46749;32.932;-117.130;2023-02-05T00:39:36;101126.13;;;18.49;53.43
60897;BME280;46749;32.932;-117.130;2023-02-05T00:42:03;101155.03;;;18.48;53.46
60897;BME280;46749;32.932;-117.130;2023-02-05T00:44:29;101153.25;;;18.47;53.38
60897;BME280;46749;32.932;-117.130;2023-02-05T00:46:55;101120.81;;;18.46;53.76
60897;BME280;46749;32.932;-117.130;2023-02-05T00:49:21;101141.88;;;18.46;53.58
60897;BME280;46749;32.932;-117.130;2023-02-05T00:51:47;101133.09;;;18.47;53.76
60897;BME280;46749;32.932;-117.130;2023-02-05T00:54:14;101146.25;;;18.47;53.32
60897;BME280;46749;32.932;-117.130;2023-02-05T00:56:40;101138.38;;;18.47;53.54
60897;BME280;46749;32.932;-117.130;2023-02-05T00:59:06;101137.47;;;18.47;53.77
60897;BME280;46749;32.932;-117.130;2023-02-05T01:01:32;101127.84;;;18.47;53.54
60897;BME280;46749;32.932;-117.130;2023-02-05T01:03:58;101143.63;;;18.47;53.49
60897;BME280;46749;32.932;-117.130;2023-02-05T01:06:25;101155.06;;;18.49;53.50
60897;BME280;46749;32.932;-117.130;2023-02-05T01:08:51;101134.03;;;18.49;53.56
60897;BME280;46749;32.932;-117.130;2023-02-05T01:11:17;101125.22;;;18.47;53.75
60897;BME280;46749;32.932;-117.130;2023-02-05T01:13:44;101134.84;;;18.47;53.75
60897;BME280;46749;32.932;-117.130;2023-02-05T01:16:10;101129.59;;;18.45;53.75
60897;BME280;46749;32.932;-117.130;2023-02-05T01:18:37;101131.34;;;18.46;53.64
60897;BME280;46749;32.932;-117.130;2023-02-05T01:21:03;101115.56;;;18.46;53.86
60897;BME280;46749;32.932;-117.130;2023-02-05T01:23:30;101105.91;;;18.45;53.61
60897;BME280;46749;32.932;-117.130;2023-02-05T01:25:56;101101.53;;;18.46;53.47
60897;BME280;46749;32.932;-117.130;2023-02-05T01:28:22;101132.22;;;18.45;53.87
60897;BME280;46749;32.932;-117.130;2023-02-05T01:30:49;101144.47;;;18.45;53.78
60897;BME280;46749;32.932;-117.130;2023-02-05T01:33:17;101133.97;;;18.45;53.83
60897;BME280;46749;32.932;-117.130;2023-02-05T01:35:44;101120.81;;;18.46;53.70
60897;BME280;46749;32.932;-117.130;2023-02-05T01:38:11;101127.84;;;18.46;53.55
60897;BME280;46749;32.932;-117.130;2023-02-05T01:40:38;101126.94;;;18.45;53.81
60897;BME280;46749;32.932;-117.130;2023-02-05T01:43:12;101122.56;;;18.44;53.96
60897;BME280;46749;32.932;-117.130;2023-02-05T01:48:39;101117.31;;;18.43;53.79
60897;BME280;46749;32.932;-117.130;2023-02-05T01:51:10;101138.34;;;18.43;53.87
60897;BME280;46749;32.932;-117.130;2023-02-05T01:53:39;101126.94;;;18.42;53.70
60897;BME280;46749;32.932;-117.130;2023-02-05T01:56:13;101121.69;;;18.42;53.80
60897;BME280;46749;32.932;-117.130;2023-02-05T01:58:48;101130.47;;;18.44;53.65
60897;BME280;46749;32.932;-117.130;2023-02-05T02:01:17;101143.59;;;18.44;53.95
60897;BME280;46749;32.932;-117.130;2023-02-05T02:03:43;101148.00;;;18.44;53.77
60897;BME280;46749;32.932;-117.130;2023-02-05T02:06:10;101141.84;;;18.43;53.87
60897;BME280;46749;32.932;-117.130;2023-02-05T02:08:36;101140.09;;;18.44;53.52
60897;BME280;46749;32.932;-117.130;2023-02-05T02:11:04;101148.00;;;18.44;53.87
60897;BME280;46749;32.932;-117.130;2023-02-05T02:13:33;101144.47;;;18.43;54.00
60897;BME280;46749;32.932;-117.130;2023-02-05T02:16:01;101153.25;;;18.44;53.83
60897;BME280;46749;32.932;-117.130;2023-02-05T02:18:28;101143.59;;;18.44;53.99
60897;BME280;46749;32.932;-117.130;2023-02-05T02:24:11;101156.75;;;18.43;53.88
60897;BME280;46749;32.932;-117.130;2023-02-05T02:29:36;101149.72;;;18.42;53.88
60897;BME280;46749;32.932;-117.130;2023-02-05T02:32:20;101144.47;;;18.42;53.87
60897;BME280;46749;32.932;-117.130;2023-02-05T02:35:00;101128.69;;;18.43;53.87
60897;BME280;46749;32.932;-117.130;2023-02-05T02:37:39;101160.25;;;18.43;53.74
60897;BME280;46749;32.932;-117.130;2023-02-05T02:42:44;101122.50;;;18.41;53.88
60897;BME280;46749;32.932;-117.130;2023-02-05T02:45:12;101111.09;;;18.39;54.03
60897;BME280;46749;32.932;-117.130;2023-02-05T02:48:05;101124.25;;;18.39;54.16
60897;BME280;46749;32.932;-117.130;2023-02-05T02:50:36;101120.75;;;18.40;53.80
60897;BME280;46749;32.932;-117.130;2023-02-05T02:53:16;101130.41;;;18.41;54.21
60897;BME280;46749;32.932;-117.130;2023-02-05T02:55:43;101140.91;;;18.38;54.07
60897;BME280;46749;32.932;-117.130;2023-02-05T02:58:22;101130.38;;;18.38;54.07
60897;BME280;46749;32.932;-117.130;2023-02-05T03:00:50;101113.72;;;18.38;54.34
60897;BME280;46749;32.932;-117.130;2023-02-05T03:03:20;101133.03;;;18.38;53.94
60897;BME280;46749;32.932;-117.130;2023-02-05T03:05:48;101118.13;;;18.39;54.30
60897;BME280;46749;32.932;-117.130;2023-02-05T03:08:26;101120.75;;;18.37;54.05
60897;BME280;46749;32.932;-117.130;2023-02-05T03:11:01;101131.28;;;18.39;54.10
60897;BME280;46749;32.932;-117.130;2023-02-05T03:13:30;101103.22;;;18.38;54.05
60897;BME280;46749;32.932;-117.130;2023-02-05T03:15:57;101141.78;;;18.37;54.11
60897;BME280;46749;32.932;-117.130;2023-02-05T03:18:23;101126.88;;;18.36;54.17
60897;BME280;46749;32.932;-117.130;2023-02-05T03:20:58;101118.94;;;18.34;54.31
60897;BME280;46749;32.932;-117.130;2023-02-05T03:23:27;101116.31;;;18.34;54.35
60897;BME280;46749;32.932;-117.130;2023-02-05T03:25:53;101118.94;;;18.33;54.14
60897;BME280;46749;32.932;-117.130;2023-02-05T03:28:20;101100.53;;;18.33;54.41
60897;BME280;46749;32.932;-117.130;2023-02-05T03:31:01;101097.91;;;18.33;54.52
60897;BME280;46749;32.932;-117.130;2023-02-05T03:33:46;101104.91;;;18.31;54.15
60897;BME280;46749;32.932;-117.130;2023-02-05T03:36:48;101117.19;;;18.32;54.19
60897;BME280;46749;32.932;-117.130;2023-02-05T03:47:18;101119.78;;;18.30;54.34
60897;BME280;46749;32.932;-117.130;2023-02-05T03:52:50;101121.50;;;18.28;54.24
60897;BME280;46749;32.932;-117.130;2023-02-05T03:55:25;101157.44;;;18.28;54.27
60897;BME280;46749;32.932;-117.130;2023-02-05T04:00:44;101153.94;;;18.29;54.15
60897;BME280;46749;32.932;-117.130;2023-02-05T04:03:11;101149.53;;;18.28;54.22
60897;BME280;46749;32.932;-117.130;2023-02-05T04:05:38;101178.47;;;18.28;54.24
60897;BME280;46749;32.932;-117.130;2023-02-05T04:08:04;101181.09;;;18.28;54.19
60897;BME280;46749;32.932;-117.130;2023-02-05T04:10:30;101174.97;;;18.27;54.12
60897;BME280;46749;32.932;-117.130;2023-02-05T04:12:57;101169.69;;;18.26;53.98
60897;BME280;46749;32.932;-117.130;2023-02-05T04:15:23;101178.44;;;18.25;53.94
60897;BME280;46749;32.932;-117.130;2023-02-05T04:17:49;101189.84;;;18.25;54.18
60897;BME280;46749;32.932;-117.130;2023-02-05T04:20:15;101191.59;;;18.25;53.98
60897;BME280;46749;32.932;-117.130;2023-02-05T04:22:42;101211.75;;;18.24;54.16
60897;BME280;46749;32.932;-117.130;2023-02-05T04:25:08;101210.88;;;18.25;53.89
60897;BME280;46749;32.932;-117.130;2023-02-05T04:27:34;101217.88;;;18.23;54.23
60897;BME280;46749;32.932;-117.130;2023-02-05T04:30:01;101241.53;;;18.23;53.72
60897;BME280;46749;32.932;-117.130;2023-02-05T04:32:27;101230.97;;;18.22;54.15
60897;BME280;46749;32.932;-117.130;2023-02-05T04:34:53;101240.66;;;18.23;54.21
60897;BME280;46749;32.932;-117.130;2023-02-05T04:37:19;101244.16;;;18.23;54.12
60897;BME280;46749;32.932;-117.130;2023-02-05T04:39:46;101253.81;;;18.23;53.87
60897;BME280;46749;32.932;-117.130;2023-02-05T04:42:12;101261.66;;;18.21;54.16
60897;BME280;46749;32.932;-117.130;2023-02-05T04:44:38;101264.28;;;18.21;54.00
60897;BME280;46749;32.932;-117.130;2023-02-05T04:47:04;101262.50;;;18.20;54.09
60897;BME280;46749;32.932;-117.130;2023-02-05T04:49:32;101280.03;;;18.20;53.87
60897;BME280;46749;32.932;-117.130;2023-02-05T04:51:58;101280.91;;;18.19;54.00
60897;BME280;46749;32.932;-117.130;2023-02-05T04:54:24;101285.28;;;18.20;53.96
60897;BME280;46749;32.932;-117.130;2023-02-05T04:56:53;101299.31;;;18.19;53.86
60897;BME280;46749;32.932;-117.130;2023-02-05T04:59:19;101301.06;;;18.18;54.06
60897;BME280;46749;32.932;-117.130;2023-02-05T05:01:45;101315.94;;;18.18;53.88
60897;BME280;46749;32.932;-117.130;2023-02-05T05:04:11;101315.06;;;18.17;53.87
60897;BME280;46749;32.932;-117.130;2023-02-05T05:06:38;101323.84;;;18.18;53.93
60897;BME280;46749;32.932;-117.130;2023-02-05T05:09:04;101330.84;;;18.17;53.86
60897;BME280;46749;32.932;-117.130;2023-02-05T05:11:30;101327.31;;;18.17;53.78
60897;BME280;46749;32.932;-117.130;2023-02-05T05:13:56;101341.31;;;18.16;53.89
60897;BME280;46749;32.932;-117.130;2023-02-05T05:16:23;101346.56;;;18.16;53.91
60897;BME280;46749;32.932;-117.130;2023-02-05T05:18:51;101348.31;;;18.15;53.77
60897;BME280;46749;32.932;-117.130;2023-02-05T05:21:17;101353.56;;;18.14;53.81
60897;BME280;46749;32.932;-117.130;2023-02-05T05:23:43;101348.28;;;18.14;53.82
60897;BME280;46749;32.932;-117.130;2023-02-05T05:26:11;101359.69;;;18.13;53.67
60897;BME280;46749;32.932;-117.130;2023-02-05T05:28:37;101362.31;;;18.13;53.62
60897;BME280;46749;32.932;-117.130;2023-02-05T05:31:09;101365.81;;;18.12;53.89
60897;BME280;46749;32.932;-117.130;2023-02-05T05:33:36;101368.44;;;18.12;53.85
60897;BME280;46749;32.932;-117.130;2023-02-05T05:36:03;101376.31;;;18.12;53.78
60897;BME280;46749;32.932;-117.130;2023-02-05T05:38:29;101377.19;;;18.11;53.70
60897;BME280;46749;32.932;-117.130;2023-02-05T05:40:56;101390.31;;;18.11;53.77
60897;BME280;46749;32.932;-117.130;2023-02-05T05:43:40;101379.81;;;18.11;53.64
60897;BME280;46749;32.932;-117.130;2023-02-05T05:46:19;101388.53;;;18.10;53.63
60897;BME280;46749;32.932;-117.130;2023-02-05T05:48:58;101398.16;;;18.09;53.71
60897;BME280;46749;32.932;-117.130;2023-02-05T05:51:26;101394.66;;;18.09;53.69
60897;BME280;46749;32.932;-117.130;2023-02-05T05:53:53;101403.41;;;18.08;53.67
60897;BME280;46749;32.932;-117.130;2023-02-05T05:56:20;101405.16;;;18.07;53.61
60897;BME280;46749;32.932;-117.130;2023-02-05T05:58:47;101406.03;;;18.08;53.68
60897;BME280;46749;32.932;-117.130;2023-02-05T06:01:15;101415.66;;;18.07;53.70
60897;BME280;46749;32.932;-117.130;2023-02-05T06:03:41;101413.03;;;18.05;53.58
60897;BME280;46749;32.932;-117.130;2023-02-05T06:06:09;101412.13;;;18.05;53.62
60897;BME280;46749;32.932;-117.130;2023-02-05T06:08:36;101423.53;;;18.05;53.71
60897;BME280;46749;32.932;-117.130;2023-02-05T06:11:03;101422.59;;;18.03;53.68
60897;BME280;46749;32.932;-117.130;2023-02-05T06:13:29;101425.22;;;18.03;53.85
60897;BME280;46749;32.932;-117.130;2023-02-05T06:15:56;101429.59;;;18.03;53.58
60897;BME280;46749;32.932;-117.130;2023-02-05T06:18:22;101433.97;;;18.02;53.72
60897;BME280;46749;32.932;-117.130;2023-02-05T06:20:48;101444.50;;;18.02;53.73
60897;BME280;46749;32.932;-117.130;2023-02-05T06:23:14;101445.34;;;18.01;53.53
60897;BME280;46749;32.932;-117.130;2023-02-05T06:25:40;101462.00;;;18.00;53.36
60897;BME280;46749;32.932;-117.130;2023-02-05T06:28:07;101450.59;;;18.00;53.57
60897;BME280;46749;32.932;-117.130;2023-02-05T06:30:33;101457.59;;;17.99;53.70
60897;BME280;46749;32.932;-117.130;2023-02-05T06:32:59;101464.59;;;17.99;53.54
60897;BME280;46749;32.932;-117.130;2023-02-05T06:35:25;101460.22;;;17.99;53.69
60897;BME280;46749;32.932;-117.130;2023-02-05T06:37:51;101474.22;;;17.98;53.73
60897;BME280;46749;32.932;-117.130;2023-02-05T06:40:17;101469.84;;;17.99;53.73
60897;BME280;46749;32.932;-117.130;2023-02-05T06:42:47;101477.69;;;17.97;53.47
60897;BME280;46749;32.932;-117.130;2023-02-05T06:45:14;101482.94;;;17.97;53.74
60897;BME280;46749;32.932;-117.130;2023-02-05T06:47:40;101481.22;;;17.98;53.62
60897;BME280;46749;32.932;-117.130;2023-02-05T06:50:07;101479.41;;;17.95;53.68
60897;BME280;46749;32.932;-117.130;2023-02-05T06:52:33;101496.94;;;17.96;53.66
60897;BME280;46749;32.932;-117.130;2023-02-05T06:54:59;101498.66;;;17.94;53.85
60897;BME280;46749;32.932;-117.130;2023-02-05T06:57:25;101498.66;;;17.94;53.56
60897;BME280;46749;32.932;-117.130;2023-02-05T06:59:52;101509.19;;;17.94;53.60
60897;BME280;46749;32.932;-117.130;2023-02-05T07:02:18;101500.41;;;17.92;53.65
60897;BME280;46749;32.932;-117.130;2023-02-05T07:04:45;101512.66;;;17.92;53.76
60897;BME280;46749;32.932;-117.130;2023-02-05T07:07:11;101510.91;;;17.92;53.61
60897;BME280;46749;32.932;-117.130;2023-02-05T07:09:38;101519.63;;;17.91;53.58
60897;BME280;46749;32.932;-117.130;2023-02-05T07:12:04;101517.91;;;17.92;53.45
60897;BME280;46749;32.932;-117.130;2023-02-05T07:14:31;101519.63;;;17.91;53.63
60897;BME280;46749;32.932;-117.130;2023-02-05T07:16:57;101518.75;;;17.91;53.55
60897;BME280;46749;32.932;-117.130;2023-02-05T07:19:23;101516.97;;;17.90;53.69
60897;BME280;46749;32.932;-117.130;2023-02-05T07:21:49;101510.84;;;17.89;53.62
60897;BME280;46749;32.932;-117.130;2023-02-05T07:24:15;101515.22;;;17.89;53.67
60897;BME280;46749;32.932;-117.130;2023-02-05T07:26:41;101513.44;;;17.88;53.70
60897;BME280;46749;32.932;-117.130;2023-02-05T07:29:10;101516.06;;;17.88;53.57
60897;BME280;46749;32.932;-117.130;2023-02-05T07:31:36;101522.19;;;17.87;53.57
60897;BME280;46749;32.932;-117.130;2023-02-05T07:34:02;101536.22;;;17.87;53.66
60897;BME280;46749;32.932;-117.130;2023-02-05T07:36:28;101528.31;;;17.87;53.40
60897;BME280;46749;32.932;-117.130;2023-02-05T07:38:55;101537.94;;;17.85;53.54
60897;BME280;46749;32.932;-117.130;2023-02-05T07:41:21;101537.94;;;17.85;53.64
60897;BME280;46749;32.932;-117.130;2023-02-05T07:43:50;101534.38;;;17.85;53.67
60897;BME280;46749;32.932;-117.130;2023-02-05T07:46:17;101537.00;;;17.85;53.51
60897;BME280;46749;32.932;-117.130;2023-02-05T07:48:43;101537.88;;;17.84;53.64
60897;BME280;46749;32.932;-117.130;2023-02-05T07:51:15;101545.75;;;17.84;53.55
60897;BME280;46749;32.932;-117.130;2023-02-05T07:53:42;101546.63;;;17.83;53.59
60897;BME280;46749;32.932;-117.130;2023-02-05T07:56:08;101542.25;;;17.83;53.50
60897;BME280;46749;32.932;-117.130;2023-02-05T07:58:35;101540.47;;;17.82;53.67
60897;BME280;46749;32.932;-117.130;2023-02-05T08:01:02;101549.22;;;17.81;53.57
60897;BME280;46749;32.932;-117.130;2023-02-05T08:03:29;101540.47;;;17.82;53.52
60897;BME280;46749;32.932;-117.130;2023-02-05T08:05:56;101543.09;;;17.81;53.52
60897;BME280;46749;32.932;-117.130;2023-02-05T08:08:22;101543.09;;;17.81;53.67
60897;BME280;46749;32.932;-117.130;2023-02-05T08:11:00;101536.94;;;17.80;53.59
60897;BME280;46749;32.932;-117.130;2023-02-05T08:13:27;101537.81;;;17.79;53.68
60897;BME280;46749;32.932;-117.130;2023-02-05T08:15:53;101545.63;;;17.77;53.44
60897;BME280;46749;32.932;-117.130;2023-02-05T08:18:20;101553.53;;;17.77;53.56
60897;BME280;46749;32.932;-117.130;2023-02-05T08:20:46;101549.16;;;17.78;53.54
60897;BME280;46749;32.932;-117.130;2023-02-05T08:23:12;101537.72;;;17.76;53.56
60897;BME280;46749;32.932;-117.130;2023-02-05T08:25:39;101550.88;;;17.76;53.45
60897;BME280;46749;32.932;-117.130;2023-02-05T08:28:05;101564.88;;;17.75;53.42
60897;BME280;46749;32.932;-117.130;2023-02-05T08:30:31;101569.25;;;17.74;53.64
60897;BME280;46749;32.932;-117.130;2023-02-05T08:32:57;101572.72;;;17.73;53.71
60897;BME280;46749;32.932;-117.130;2023-02-05T08:35:23;101568.34;;;17.74;53.53
60897;BME280;46749;32.932;-117.130;2023-02-05T08:37:50;101562.22;;;17.73;53.57
60897;BME280;46749;32.932;-117.130;2023-02-05T08:40:16;101549.91;;;17.72;53.56
60897;BME280;46749;32.932;-117.130;2023-02-05T08:42:42;101550.78;;;17.71;53.45
60897;BME280;46749;32.932;-117.130;2023-02-05T08:45:09;101553.41;;;17.71;53.56
60897;BME280;46749;32.932;-117.130;2023-02-05T08:47:35;101555.09;;;17.71;53.54
60897;BME280;46749;32.932;-117.130;2023-02-05T08:50:05;101546.34;;;17.70;53.49
60897;BME280;46749;32.932;-117.130;2023-02-05T08:52:31;101563.00;;;17.71;53.52
60897;BME280;46749;32.932;-117.130;2023-02-05T08:54:57;101572.59;;;17.69;53.53
60897;BME280;46749;32.932;-117.130;2023-02-05T08:57:27;101569.97;;;17.69;53.42
60897;BME280;46749;32.932;-117.130;2023-02-05T08:59:55;101575.22;;;17.69;53.40
60897;BME280;46749;32.932;-117.130;2023-02-05T09:02:22;101569.06;;;17.68;53.44
60897;BME280;46749;32.932;-117.130;2023-02-05T09:04:48;101568.19;;;17.68;53.45
60897;BME280;46749;32.932;-117.130;2023-02-05T09:07:15;101566.44;;;17.67;53.32
60897;BME280;46749;32.932;-117.130;2023-02-05T09:09:41;101571.69;;;17.67;53.66
60897;BME280;46749;32.932;-117.130;2023-02-05T09:12:08;101569.88;;;17.66;53.67
60897;BME280;46749;32.932;-117.130;2023-02-05T09:14:37;101571.63;;;17.65;53.26
60897;BME280;46749;32.932;-117.130;2023-02-05T09:17:08;101568.13;;;17.65;53.50
60897;BME280;46749;32.932;-117.130;2023-02-05T09:19:36;101573.38;;;17.65;53.34
60897;BME280;46749;32.932;-117.130;2023-02-05T09:22:04;101572.50;;;17.66;53.45
60897;BME280;46749;32.932;-117.130;2023-02-05T09:24:31;101583.00;;;17.64;53.34
60897;BME280;46749;32.932;-117.130;2023-02-05T09:26:57;101596.09;;;17.63;53.42
60897;BME280;46749;32.932;-117.130;2023-02-05T09:29:24;101592.59;;;17.62;53.43
60897;BME280;46749;32.932;-117.130;2023-02-05T09:31:51;101579.47;;;17.62;53.53
60897;BME280;46749;32.932;-117.130;2023-02-05T09:34:17;101582.97;;;17.63;53.50
60897;BME280;46749;32.932;-117.130;2023-02-05T09:36:43;101580.31;;;17.61;53.52
60897;BME280;46749;32.932;-117.130;2023-02-05T09:39:10;101588.13;;;17.60;53.40
60897;BME280;46749;32.932;-117.130;2023-02-05T09:47:33;101601.28;;;17.60;53.31
60897;BME280;46749;32.932;-117.130;2023-02-05T09:52:35;101597.75;;;17.58;53.44
60897;BME280;46749;32.932;-117.130;2023-02-05T09:55:09;101602.09;;;17.57;53.39
60897;BME280;46749;32.932;-117.130;2023-02-05T09:57:42;101606.47;;;17.57;53.35
60897;BME280;46749;32.932;-117.130;2023-02-05T10:00:17;101611.72;;;17.57;53.31
60897;BME280;46749;32.932;-117.130;2023-02-05T10:03:06;101613.44;;;17.55;53.27
60897;BME280;46749;32.932;-117.130;2023-02-05T10:05:49;101618.69;;;17.55;53.42
60897;BME280;46749;32.932;-117.130;2023-02-05T10:08:24;101631.84;;;17.55;53.34
60897;BME280;46749;32.932;-117.130;2023-02-05T10:10:56;101630.03;;;17.53;53.29
60897;BME280;46749;32.932;-117.130;2023-02-05T10:13:39;101624.75;;;17.52;53.42
60897;BME280;46749;32.932;-117.130;2023-02-05T10:18:42;101629.13;;;17.51;53.36
60897;BME280;46749;32.932;-117.130;2023-02-05T10:21:39;101622.97;;;17.51;53.42
60897;BME280;46749;32.932;-117.130;2023-02-05T10:26:52;101616.84;;;17.50;53.43
60897;BME280;46749;32.932;-117.130;2023-02-05T10:29:36;101621.22;;;17.50;53.44
60897;BME280;46749;32.932;-117.130;2023-02-05T10:34:59;101613.31;;;17.48;53.42
60897;BME280;46749;32.932;-117.130;2023-02-05T10:37:44;101619.41;;;17.47;53.33
60897;BME280;46749;32.932;-117.130;2023-02-05T10:40:14;101627.25;;;17.46;53.34
60897;BME280;46749;32.932;-117.130;2023-02-05T10:42:46;101636.00;;;17.46;53.42
60897;BME280;46749;32.932;-117.130;2023-02-05T10:45:31;101633.34;;;17.45;53.31
60897;BME280;46749;32.932;-117.130;2023-02-05T10:48:21;101629.81;;;17.43;53.38
60897;BME280;46749;32.932;-117.130;2023-02-05T10:51:05;101628.06;;;17.43;53.20
60897;BME280;46749;32.932;-117.130;2023-02-05T10:53:32;101635.94;;;17.43;53.49
60897;BME280;46749;32.932;-117.130;2023-02-05T10:55:59;101634.19;;;17.42;53.34
60897;BME280;46749;32.932;-117.130;2023-02-05T10:58:37;101621.00;;;17.41;53.35
60897;BME280;46749;32.932;-117.130;2023-02-05T11:01:18;101624.53;;;17.41;53.36
60897;BME280;46749;32.932;-117.130;2023-02-05T11:04:15;101622.72;;;17.40;53.37
60897;BME280;46749;32.932;-117.130;2023-02-05T11:06:45;101623.69;;;17.42;53.34
60897;BME280;46749;32.932;-117.130;2023-02-05T11:12:27;101633.22;;;17.39;53.33
60897;BME280;46749;32.932;-117.130;2023-02-05T11:14:59;101628.84;;;17.39;53.36
60897;BME280;46749;32.932;-117.130;2023-02-05T11:17:36;101625.34;;;17.39;53.46
60897;BME280;46749;32.932;-117.130;2023-02-05T11:20:06;101630.59;;;17.39;53.37
60897;BME280;46749;32.932;-117.130;2023-02-05T11:22:46;101626.19;;;17.38;53.22
60897;BME280;46749;32.932;-117.130;2023-02-05T11:25:21;101625.31;;;17.37;53.27
60897;BME280;46749;32.932;-117.130;2023-02-05T11:27:58;101622.66;;;17.36;53.46
60897;BME280;46749;32.932;-117.130;2023-02-05T11:30:35;101613.88;;;17.35;53.46
60897;BME280;46749;32.932;-117.130;2023-02-05T11:36:02;101619.09;;;17.34;53.29
60897;BME280;46749;32.932;-117.130;2023-02-05T11:38:50;101626.06;;;17.33;53.46
60897;BME280;46749;32.932;-117.130;2023-02-05T11:41:43;101615.53;;;17.32;53.39
60897;BME280;46749;32.932;-117.130;2023-02-05T11:46:47;101634.81;;;17.32;53.47
60897;BME280;46749;32.932;-117.130;2023-02-05T11:49:20;101642.66;;;17.31;53.37
60897;BME280;46749;32.932;-117.130;2023-02-05T11:51:49;101648.78;;;17.30;53.39
60897;BME280;46749;32.932;-117.130;2023-02-05T11:54:31;101662.78;;;17.30;53.44
60897;BME280;46749;32.932;-117.130;2023-02-05T11:59:25;101643.50;;;17.30;53.47
60897;BME280;46749;32.932;-117.130;2023-02-05T12:01:51;101651.41;;;17.30;53.34
60897;BME280;46749;32.932;-117.130;2023-02-05T12:04:19;101652.19;;;17.27;53.38
60897;BME280;46749;32.932;-117.130;2023-02-05T12:09:23;101660.06;;;17.27;53.64
60897;BME280;46749;32.932;-117.130;2023-02-05T12:12:06;101658.28;;;17.26;53.26
60897;BME280;46749;32.932;-117.130;2023-02-05T12:15:02;101670.56;;;17.27;53.36
60897;BME280;46749;32.932;-117.130;2023-02-05T12:20:37;101651.28;;;17.25;53.48
60897;BME280;46749;32.932;-117.130;2023-02-05T12:23:28;101656.53;;;17.25;53.28
60897;BME280;46749;32.932;-117.130;2023-02-05T12:26:15;101665.25;;;17.24;53.37
60897;BME280;46749;32.932;-117.130;2023-02-05T12:29:13;101664.38;;;17.23;53.44
60897;BME280;46749;32.932;-117.130;2023-02-05T12:35:00;101663.44;;;17.21;53.47
60897;BME280;46749;32.932;-117.130;2023-02-05T12:43:44;101675.66;;;17.21;53.55
60897;BME280;46749;32.932;-117.130;2023-02-05T12:46:32;101695.75;;;17.19;53.43
60897;BME280;46749;32.932;-117.130;2023-02-05T12:52:14;101694.88;;;17.18;53.18
60897;BME280;46749;32.932;-117.130;2023-02-05T12:54:58;101701.84;;;17.18;53.48
60897;BME280;46749;32.932;-117.130;2023-02-05T12:57:43;101700.13;;;17.18;53.48
60897;BME280;46749;32.932;-117.130;2023-02-05T13:00:23;101702.72;;;17.17;53.51
60897;BME280;46749;32.932;-117.130;2023-02-05T13:05:29;101714.03;;;17.16;53.28
60897;BME280;46749;32.932;-117.130;2023-02-05T13:08:22;101710.50;;;17.14;53.35
60897;BME280;46749;32.932;-117.130;2023-02-05T13:11:07;101712.25;;;17.15;53.54
60897;BME280;46749;32.932;-117.130;2023-02-05T13:16:21;101721.00;;;17.14;53.38
60897;BME280;46749;32.932;-117.130;2023-02-05T13:19:14;101712.19;;;17.12;53.52
60897;BME280;46749;32.932;-117.130;2023-02-05T13:21:43;101732.34;;;17.13;53.37
60897;BME280;46749;32.932;-117.130;2023-02-05T13:24:49;101731.47;;;17.12;53.31
60897;BME280;46749;32.932;-117.130;2023-02-05T13:27:44;101733.19;;;17.12;53.42
60897;BME280;46749;32.932;-117.130;2023-02-05T13:30:41;101740.19;;;17.11;53.34
60897;BME280;46749;32.932;-117.130;2023-02-05T13:33:09;101736.69;;;17.11;53.37
60897;BME280;46749;32.932;-117.130;2023-02-05T13:41:07;101738.34;;;17.09;53.51
60897;BME280;46749;32.932;-117.130;2023-02-05T13:43:51;101746.22;;;17.09;53.35
60897;BME280;46749;32.932;-117.130;2023-02-05T13:46:35;101742.72;;;17.08;53.52
60897;BME280;46749;32.932;-117.130;2023-02-05T13:58:16;101752.28;;;17.05;53.14
60897;BME280;46749;32.932;-117.130;2023-02-05T14:01:31;101759.28;;;17.06;53.49
60897;BME280;46749;32.932;-117.130;2023-02-05T14:04:26;101753.16;;;17.05;53.54
60897;BME280;46749;32.932;-117.130;2023-02-05T14:07:02;101768.91;;;17.05;53.54
60897;BME280;46749;32.932;-117.130;2023-02-05T14:09:36;101767.13;;;17.04;53.70